sensor_id;sensor_type;location;lat;lon;timestamp;temperature;humidity
56137;DHT22;42008;52.934;5.884;2023-02-28T00:00:49;5.50;1.00
56137;DHT22;42008;52.934;5.884;2023-02-28T00:03:15;5.60;1.00
56137;DHT22;42008;52.934;5.884;2023-02-28T00:05:40;4.60;1.00
56137;DHT22;42008;52.934;5.884;2023-02-28T00:08:07;5.20;99.90
56137;DHT22;42008;52.934;5.884;2023-02-28T00:10:32;5.10;99.90
56137;DHT22;42008;52.934;5.884;2023-02-28T00:13:05;4.90;1.00
56137;DHT22;42008;52.934;5.884;2023-02-28T00:15:32;5.50;1.00
56137;DHT22;42008;52.934;5.884;2023-02-28T00:17:58;5.20;1.00
56137;DHT22;42008;52.934;5.884;2023-02-28T00:20:24;4.90;1.00
56137;DHT22;42008;52.934;5.884;2023-02-28T00:22:51;4.60;1.00
56137;DHT22;42008;52.934;5.884;2023-02-28T00:25:20;4.70;1.00
56137;DHT22;42008;52.934;5.884;2023-02-28T00:27:47;5.40;1.00
56137;DHT22;42008;52.934;5.884;2023-02-28T00:30:18;5.00;1.00
56137;DHT22;42008;52.934;5.884;2023-02-28T00:32:44;5.70;1.00
56137;DHT22;42008;52.934;5.884;2023-02-28T00:35:11;4.40;1.00
56137;DHT22;42008;52.934;5.884;2023-02-28T00:37:37;4.80;1.00
56137;DHT22;42008;52.934;5.884;2023-02-28T00:40:04;4.30;1.00
56137;DHT22;42008;52.934;5.884;2023-02-28T00:42:36;5.80;1.00
56137;DHT22;42008;52.934;5.884;2023-02-28T00:45:02;4.40;1.00
56137;DHT22;42008;52.934;5.884;2023-02-28T00:47:30;4.90;1.00
56137;DHT22;42008;52.934;5.884;2023-02-28T00:49:56;4.80;1.00
56137;DHT22;42008;52.934;5.884;2023-02-28T00:52:21;4.60;1.00
56137;DHT22;42008;52.934;5.884;2023-02-28T00:54:47;5.50;1.00
56137;DHT22;42008;52.934;5.884;2023-02-28T00:57:12;4.50;1.00
56137;DHT22;42008;52.934;5.884;2023-02-28T00:59:38;4.60;1.00
56137;DHT22;42008;52.934;5.884;2023-02-28T01:02:03;5.10;1.00
56137;DHT22;42008;52.934;5.884;2023-02-28T01:04:29;4.90;1.00
56137;DHT22;42008;52.934;5.884;2023-02-28T01:06:54;5.00;1.00
56137;DHT22;42008;52.934;5.884;2023-02-28T01:09:20;5.20;13.50
56137;DHT22;42008;52.934;5.884;2023-02-28T01:11:46;4.60;68.30
56137;DHT22;42008;52.934;5.884;2023-02-28T01:14:13;4.60;99.90
56137;DHT22;42008;52.934;5.884;2023-02-28T01:16:40;4.90;1.00
56137;DHT22;42008;52.934;5.884;2023-02-28T01:19:05;5.70;24.00
56137;DHT22;42008;52.934;5.884;2023-02-28T01:21:31;4.60;30.00
56137;DHT22;42008;52.934;5.884;2023-02-28T01:23:57;4.90;34.70
56137;DHT22;42008;52.934;5.884;2023-02-28T01:26:23;4.60;77.20
56137;DHT22;42008;52.934;5.884;2023-02-28T01:28:51;4.90;99.90
56137;DHT22;42008;52.934;5.884;2023-02-28T01:31:17;6.10;99.90
56137;DHT22;42008;52.934;5.884;2023-02-28T01:33:43;5.50;99.90
56137;DHT22;42008;52.934;5.884;2023-02-28T01:36:12;5.00;99.90
56137;DHT22;42008;52.934;5.884;2023-02-28T01:38:39;5.80;99.90
56137;DHT22;42008;52.934;5.884;2023-02-28T01:41:05;5.10;82.80
56137;DHT22;42008;52.934;5.884;2023-02-28T01:46:09;4.80;22.40
56137;DHT22;42008;52.934;5.884;2023-02-28T01:48:38;5.40;16.40
56137;DHT22;42008;52.934;5.884;2023-02-28T01:51:10;5.70;7.80
56137;DHT22;42008;52.934;5.884;2023-02-28T01:53:41;5.00;1.40
56137;DHT22;42008;52.934;5.884;2023-02-28T01:56:10;5.40;1.00
56137;DHT22;42008;52.934;5.884;2023-02-28T01:58:37;4.80;1.00
56137;DHT22;42008;52.934;5.884;2023-02-28T02:01:03;5.00;1.00
56137;DHT22;42008;52.934;5.884;2023-02-28T02:03:30;5.70;1.00
56137;DHT22;42008;52.934;5.884;2023-02-28T02:05:56;5.80;93.80
56137;DHT22;42008;52.934;5.884;2023-02-28T02:08:28;5.70;99.90
56137;DHT22;42008;52.934;5.884;2023-02-28T02:11:00;5.40;99.90
56137;DHT22;42008;52.934;5.884;2023-02-28T02:18:49;5.40;99.90
56137;DHT22;42008;52.934;5.884;2023-02-28T02:27:16;5.90;99.90
56137;DHT22;42008;52.934;5.884;2023-02-28T02:32:32;5.10;99.90
56137;DHT22;42008;52.934;5.884;2023-02-28T02:38:17;6.20;99.90
56137;DHT22;42008;52.934;5.884;2023-02-28T02:40:55;5.20;99.90
56137;DHT22;42008;52.934;5.884;2023-02-28T02:43:30;5.30;99.90
56137;DHT22;42008;52.934;5.884;2023-02-28T02:46:07;4.80;99.90
56137;DHT22;42008;52.934;5.884;2023-02-28T02:48:38;5.50;99.90
56137;DHT22;42008;52.934;5.884;2023-02-28T02:51:10;5.80;99.90
56137;DHT22;42008;52.934;5.884;2023-02-28T02:53:41;5.40;99.90
56137;DHT22;42008;52.934;5.884;2023-02-28T02:56:08;5.80;99.90
56137;DHT22;42008;52.934;5.884;2023-02-28T02:58:37;4.90;99.90
56137;DHT22;42008;52.934;5.884;2023-02-28T03:01:11;5.20;99.90
56137;DHT22;42008;52.934;5.884;2023-02-28T03:03:37;4.70;99.90
56137;DHT22;42008;52.934;5.884;2023-02-28T03:06:03;6.90;99.90
56137;DHT22;42008;52.934;5.884;2023-02-28T03:08:35;6.00;99.90
56137;DHT22;42008;52.934;5.884;2023-02-28T03:11:03;6.40;99.90
56137;DHT22;42008;52.934;5.884;2023-02-28T03:16:29;5.90;1.00
56137;DHT22;42008;52.934;5.884;2023-02-28T03:22:22;6.40;1.00
56137;DHT22;42008;52.934;5.884;2023-02-28T03:24:56;5.00;1.00
56137;DHT22;42008;52.934;5.884;2023-02-28T03:27:30;6.30;1.00
56137;DHT22;42008;52.934;5.884;2023-02-28T03:30:25;6.10;1.00
56137;DHT22;42008;52.934;5.884;2023-02-28T03:35:31;5.80;1.00
56137;DHT22;42008;52.934;5.884;2023-02-28T03:38:18;5.70;1.00
56137;DHT22;42008;52.934;5.884;2023-02-28T03:40:51;5.80;1.00
56137;DHT22;42008;52.934;5.884;2023-02-28T03:43:24;5.70;1.00
56137;DHT22;42008;52.934;5.884;2023-02-28T03:45:52;7.00;1.00
56137;DHT22;42008;52.934;5.884;2023-02-28T03:48:32;5.90;1.00
56137;DHT22;42008;52.934;5.884;2023-02-28T03:51:03;6.10;1.00
56137;DHT22;42008;52.934;5.884;2023-02-28T03:53:42;6.40;1.00
56137;DHT22;42008;52.934;5.884;2023-02-28T03:56:18;6.20;1.00
56137;DHT22;42008;52.934;5.884;2023-02-28T04:01:50;5.50;1.00
56137;DHT22;42008;52.934;5.884;2023-02-28T04:04:17;5.10;1.00
56137;DHT22;42008;52.934;5.884;2023-02-28T04:06:43;7.00;1.00
56137;DHT22;42008;52.934;5.884;2023-02-28T04:09:11;6.60;7.90
56137;DHT22;42008;52.934;5.884;2023-02-28T04:11:40;5.00;21.00
56137;DHT22;42008;52.934;5.884;2023-02-28T04:14:07;6.40;25.50
56137;DHT22;42008;52.934;5.884;2023-02-28T04:16:35;5.60;40.40
56137;DHT22;42008;52.934;5.884;2023-02-28T04:19:03;7.00;99.90
56137;DHT22;42008;52.934;5.884;2023-02-28T04:21:37;6.50;99.90
56137;DHT22;42008;52.934;5.884;2023-02-28T04:24:04;5.70;99.90
56137;DHT22;42008;52.934;5.884;2023-02-28T04:26:35;7.10;99.90
56137;DHT22;42008;52.934;5.884;2023-02-28T04:29:02;7.00;1.00
56137;DHT22;42008;52.934;5.884;2023-02-28T04:31:28;5.20;1.00
56137;DHT22;42008;52.934;5.884;2023-02-28T04:33:53;6.10;1.00
56137;DHT22;42008;52.934;5.884;2023-02-28T04:36:19;6.20;1.00
56137;DHT22;42008;52.934;5.884;2023-02-28T04:38:45;6.20;1.00
56137;DHT22;42008;52.934;5.884;2023-02-28T04:41:12;6.50;1.00
56137;DHT22;42008;52.934;5.884;2023-02-28T04:43:37;5.70;1.00
56137;DHT22;42008;52.934;5.884;2023-02-28T04:46:04;5.90;1.00
56137;DHT22;42008;52.934;5.884;2023-02-28T04:48:32;6.20;1.00
56137;DHT22;42008;52.934;5.884;2023-02-28T04:53:30;5.80;1.00
56137;DHT22;42008;52.934;5.884;2023-02-28T04:55:57;6.20;1.00
56137;DHT22;42008;52.934;5.884;2023-02-28T04:58:22;5.50;1.00
56137;DHT22;42008;52.934;5.884;2023-02-28T05:00:52;7.10;1.00
56137;DHT22;42008;52.934;5.884;2023-02-28T05:03:18;5.10;1.00
56137;DHT22;42008;52.934;5.884;2023-02-28T05:05:43;5.00;1.00
56137;DHT22;42008;52.934;5.884;2023-02-28T05:08:09;5.90;20.90
56137;DHT22;42008;52.934;5.884;2023-02-28T05:10:35;6.10;69.50
56137;DHT22;42008;52.934;5.884;2023-02-28T05:13:01;5.60;99.90
56137;DHT22;42008;52.934;5.884;2023-02-28T05:15:26;6.20;99.90
56137;DHT22;42008;52.934;5.884;2023-02-28T05:17:52;5.00;99.90
56137;DHT22;42008;52.934;5.884;2023-02-28T05:20:17;5.80;99.90
56137;DHT22;42008;52.934;5.884;2023-02-28T05:22:43;6.00;99.90
56137;DHT22;42008;52.934;5.884;2023-02-28T05:25:13;5.20;99.90
56137;DHT22;42008;52.934;5.884;2023-02-28T05:27:40;5.70;99.90
56137;DHT22;42008;52.934;5.884;2023-02-28T05:30:06;5.90;99.90
56137;DHT22;42008;52.934;5.884;2023-02-28T05:32:36;6.20;99.90
56137;DHT22;42008;52.934;5.884;2023-02-28T05:35:02;5.30;99.90
56137;DHT22;42008;52.934;5.884;2023-02-28T05:37:27;5.00;99.90
56137;DHT22;42008;52.934;5.884;2023-02-28T05:39:53;6.10;99.90
56137;DHT22;42008;52.934;5.884;2023-02-28T05:42:18;5.90;99.90
56137;DHT22;42008;52.934;5.884;2023-02-28T05:44:44;5.60;99.90
56137;DHT22;42008;52.934;5.884;2023-02-28T05:47:10;5.50;99.90
56137;DHT22;42008;52.934;5.884;2023-02-28T05:49:35;4.90;99.90
56137;DHT22;42008;52.934;5.884;2023-02-28T05:52:01;5.90;99.90
56137;DHT22;42008;52.934;5.884;2023-02-28T05:54:26;4.80;99.90
56137;DHT22;42008;52.934;5.884;2023-02-28T05:56:52;4.90;99.90
56137;DHT22;42008;52.934;5.884;2023-02-28T05:59:17;5.10;99.90
56137;DHT22;42008;52.934;5.884;2023-02-28T06:01:45;5.30;99.90
56137;DHT22;42008;52.934;5.884;2023-02-28T06:04:14;5.10;99.90
56137;DHT22;42008;52.934;5.884;2023-02-28T06:06:43;5.50;99.90
56137;DHT22;42008;52.934;5.884;2023-02-28T06:09:09;5.50;99.90
56137;DHT22;42008;52.934;5.884;2023-02-28T06:11:34;5.60;99.90
56137;DHT22;42008;52.934;5.884;2023-02-28T06:14:00;5.70;99.90
56137;DHT22;42008;52.934;5.884;2023-02-28T06:16:27;4.90;99.90
56137;DHT22;42008;52.934;5.884;2023-02-28T06:18:53;5.30;99.90
56137;DHT22;42008;52.934;5.884;2023-02-28T06:21:21;5.90;99.90
56137;DHT22;42008;52.934;5.884;2023-02-28T06:23:47;5.60;99.90
56137;DHT22;42008;52.934;5.884;2023-02-28T06:26:13;5.40;99.90
56137;DHT22;42008;52.934;5.884;2023-02-28T06:28:39;4.10;99.90
56137;DHT22;42008;52.934;5.884;2023-02-28T06:31:09;5.10;99.90
56137;DHT22;42008;52.934;5.884;2023-02-28T06:33:37;5.00;99.90
56137;DHT22;42008;52.934;5.884;2023-02-28T06:36:03;5.90;99.90
56137;DHT22;42008;52.934;5.884;2023-02-28T06:38:30;4.90;99.90
56137;DHT22;42008;52.934;5.884;2023-02-28T06:40:57;4.60;99.90
56137;DHT22;42008;52.934;5.884;2023-02-28T06:43:25;5.20;99.90
56137;DHT22;42008;52.934;5.884;2023-02-28T06:45:53;5.70;99.90
56137;DHT22;42008;52.934;5.884;2023-02-28T06:48:19;4.70;99.90
56137;DHT22;42008;52.934;5.884;2023-02-28T06:50:44;5.90;99.90
56137;DHT22;42008;52.934;5.884;2023-02-28T06:53:10;5.50;99.90
56137;DHT22;42008;52.934;5.884;2023-02-28T06:55:37;4.70;99.90
56137;DHT22;42008;52.934;5.884;2023-02-28T06:58:03;5.00;99.90
56137;DHT22;42008;52.934;5.884;2023-02-28T07:00:38;5.60;99.90
56137;DHT22;42008;52.934;5.884;2023-02-28T07:03:04;5.00;99.90
56137;DHT22;42008;52.934;5.884;2023-02-28T07:05:29;5.70;99.90
56137;DHT22;42008;52.934;5.884;2023-02-28T07:07:55;4.70;99.90
56137;DHT22;42008;52.934;5.884;2023-02-28T07:10:22;5.70;99.90
56137;DHT22;42008;52.934;5.884;2023-02-28T07:12:47;5.10;99.90
56137;DHT22;42008;52.934;5.884;2023-02-28T07:15:13;5.00;99.90
56137;DHT22;42008;52.934;5.884;2023-02-28T07:17:39;5.40;99.90
56137;DHT22;42008;52.934;5.884;2023-02-28T07:20:05;5.60;99.90
56137;DHT22;42008;52.934;5.884;2023-02-28T07:22:30;5.10;99.90
56137;DHT22;42008;52.934;5.884;2023-02-28T07:24:56;5.90;99.90
56137;DHT22;42008;52.934;5.884;2023-02-28T07:27:21;5.20;99.90
56137;DHT22;42008;52.934;5.884;2023-02-28T07:29:51;5.60;99.90
56137;DHT22;42008;52.934;5.884;2023-02-28T07:32:17;5.50;99.90
56137;DHT22;42008;52.934;5.884;2023-02-28T07:34:44;5.50;99.90
56137;DHT22;42008;52.934;5.884;2023-02-28T07:37:09;6.00;99.90
56137;DHT22;42008;52.934;5.884;2023-02-28T07:39:35;5.70;99.90
56137;DHT22;42008;52.934;5.884;2023-02-28T07:42:04;5.60;99.90
56137;DHT22;42008;52.934;5.884;2023-02-28T07:44:30;4.70;99.90
56137;DHT22;42008;52.934;5.884;2023-02-28T07:46:55;5.10;99.90
56137;DHT22;42008;52.934;5.884;2023-02-28T07:49:21;5.90;99.90
56137;DHT22;42008;52.934;5.884;2023-02-28T07:51:47;5.80;99.90
56137;DHT22;42008;52.934;5.884;2023-02-28T07:54:12;5.30;99.90
56137;DHT22;42008;52.934;5.884;2023-02-28T07:56:38;5.20;99.90
56137;DHT22;42008;52.934;5.884;2023-02-28T07:59:03;5.10;99.90
56137;DHT22;42008;52.934;5.884;2023-02-28T08:01:29;5.30;99.90
56137;DHT22;42008;52.934;5.884;2023-02-28T08:03:54;6.20;99.90
56137;DHT22;42008;52.934;5.884;2023-02-28T08:06:24;5.40;99.90
56137;DHT22;42008;52.934;5.884;2023-02-28T08:08:49;4.90;99.90
56137;DHT22;42008;52.934;5.884;2023-02-28T08:11:16;6.10;99.90
56137;DHT22;42008;52.934;5.884;2023-02-28T08:13:43;5.10;99.90
56137;DHT22;42008;52.934;5.884;2023-02-28T08:16:09;5.30;99.90
56137;DHT22;42008;52.934;5.884;2023-02-28T08:18:35;4.80;99.90
56137;DHT22;42008;52.934;5.884;2023-02-28T08:21:09;5.80;99.90
56137;DHT22;42008;52.934;5.884;2023-02-28T08:23:38;5.20;99.90
56137;DHT22;42008;52.934;5.884;2023-02-28T08:26:04;6.10;99.90
56137;DHT22;42008;52.934;5.884;2023-02-28T08:28:30;5.30;99.90
56137;DHT22;42008;52.934;5.884;2023-02-28T08:30:56;4.90;99.90
56137;DHT22;42008;52.934;5.884;2023-02-28T08:33:22;6.50;99.90
56137;DHT22;42008;52.934;5.884;2023-02-28T08:35:48;5.30;99.90
56137;DHT22;42008;52.934;5.884;2023-02-28T08:38:13;6.00;99.90
56137;DHT22;42008;52.934;5.884;2023-02-28T08:40:39;5.10;99.90
56137;DHT22;42008;52.934;5.884;2023-02-28T08:43:05;6.70;99.90
56137;DHT22;42008;52.934;5.884;2023-02-28T08:45:31;5.70;99.90
56137;DHT22;42008;52.934;5.884;2023-02-28T08:47:56;5.70;46.80
56137;DHT22;42008;52.934;5.884;2023-02-28T08:50:22;6.80;21.70
56137;DHT22;42008;52.934;5.884;2023-02-28T08:52:48;5.50;23.40
56137;DHT22;42008;52.934;5.884;2023-02-28T08:55:13;5.30;24.40
56137;DHT22;42008;52.934;5.884;2023-02-28T08:57:39;5.60;1.00
56137;DHT22;42008;52.934;5.884;2023-02-28T09:00:05;6.30;1.00
56137;DHT22;42008;52.934;5.884;2023-02-28T09:02:31;6.20;1.00
56137;DHT22;42008;52.934;5.884;2023-02-28T09:04:57;5.90;1.00
56137;DHT22;42008;52.934;5.884;2023-02-28T09:07:24;7.20;1.00
56137;DHT22;42008;52.934;5.884;2023-02-28T09:09:49;7.00;1.00
56137;DHT22;42008;52.934;5.884;2023-02-28T09:12:25;6.60;1.00
56137;DHT22;42008;52.934;5.884;2023-02-28T09:14:51;6.50;1.00
56137;DHT22;42008;52.934;5.884;2023-02-28T09:17:18;6.40;99.90
56137;DHT22;42008;52.934;5.884;2023-02-28T09:19:44;6.40;99.90
56137;DHT22;42008;52.934;5.884;2023-02-28T09:22:10;6.90;99.90
56137;DHT22;42008;52.934;5.884;2023-02-28T09:24:38;7.10;99.90
56137;DHT22;42008;52.934;5.884;2023-02-28T09:27:04;7.60;99.90
56137;DHT22;42008;52.934;5.884;2023-02-28T09:29:31;7.70;99.90
56137;DHT22;42008;52.934;5.884;2023-02-28T09:31:57;7.00;51.20
56137;DHT22;42008;52.934;5.884;2023-02-28T09:34:24;6.80;1.00
56137;DHT22;42008;52.934;5.884;2023-02-28T09:36:50;8.10;1.00
56137;DHT22;42008;52.934;5.884;2023-02-28T09:39:21;6.30;99.90
56137;DHT22;42008;52.934;5.884;2023-02-28T09:41:50;6.80;99.90
56137;DHT22;42008;52.934;5.884;2023-02-28T09:44:30;6.60;99.90
56137;DHT22;42008;52.934;5.884;2023-02-28T09:47:19;7.00;99.90
56137;DHT22;42008;52.934;5.884;2023-02-28T09:49:47;6.90;99.90
56137;DHT22;42008;52.934;5.884;2023-02-28T09:52:23;6.80;65.40
56137;DHT22;42008;52.934;5.884;2023-02-28T09:54:52;6.20;1.00
56137;DHT22;42008;52.934;5.884;2023-02-28T09:57:35;6.90;1.00
56137;DHT22;42008;52.934;5.884;2023-02-28T10:00:13;6.10;1.00
56137;DHT22;42008;52.934;5.884;2023-02-28T10:05:41;6.70;1.00
56137;DHT22;42008;52.934;5.884;2023-02-28T10:08:32;7.00;99.90
56137;DHT22;42008;52.934;5.884;2023-02-28T10:11:03;8.10;99.90
56137;DHT22;42008;52.934;5.884;2023-02-28T10:13:35;7.40;99.90
56137;DHT22;42008;52.934;5.884;2023-02-28T10:16:06;7.60;99.90
56137;DHT22;42008;52.934;5.884;2023-02-28T10:19:02;8.10;1.00
56137;DHT22;42008;52.934;5.884;2023-02-28T10:24:14;7.70;99.90
56137;DHT22;42008;52.934;5.884;2023-02-28T10:26:44;8.80;1.00
56137;DHT22;42008;52.934;5.884;2023-02-28T10:29:10;9.30;1.00
56137;DHT22;42008;52.934;5.884;2023-02-28T10:31:36;7.60;99.90
56137;DHT22;42008;52.934;5.884;2023-02-28T10:34:03;7.80;99.90
56137;DHT22;42008;52.934;5.884;2023-02-28T10:36:29;8.10;99.90
56137;DHT22;42008;52.934;5.884;2023-02-28T10:38:55;8.30;67.40
56137;DHT22;42008;52.934;5.884;2023-02-28T10:41:29;8.10;99.90
56137;DHT22;42008;52.934;5.884;2023-02-28T10:44:13;8.80;1.00
56137;DHT22;42008;52.934;5.884;2023-02-28T10:46:41;8.50;99.90
56137;DHT22;42008;52.934;5.884;2023-02-28T10:49:14;9.00;1.00
56137;DHT22;42008;52.934;5.884;2023-02-28T10:51:41;7.70;1.00
56137;DHT22;42008;52.934;5.884;2023-02-28T10:54:17;8.30;96.70
56137;DHT22;42008;52.934;5.884;2023-02-28T10:56:43;7.90;99.90
56137;DHT22;42008;52.934;5.884;2023-02-28T11:01:45;8.20;99.90
56137;DHT22;42008;52.934;5.884;2023-02-28T11:04:33;7.60;1.00
56137;DHT22;42008;52.934;5.884;2023-02-28T11:07:25;7.50;99.90
56137;DHT22;42008;52.934;5.884;2023-02-28T11:09:55;7.40;99.90
56137;DHT22;42008;52.934;5.884;2023-02-28T11:15:03;9.00;1.00
56137;DHT22;42008;52.934;5.884;2023-02-28T11:17:31;8.90;1.00
56137;DHT22;42008;52.934;5.884;2023-02-28T11:20:05;8.80;99.90
56137;DHT22;42008;52.934;5.884;2023-02-28T11:22:39;8.30;1.00
56137;DHT22;42008;52.934;5.884;2023-02-28T11:25:16;9.20;99.90
56137;DHT22;42008;52.934;5.884;2023-02-28T11:27:53;9.40;99.90
56137;DHT22;42008;52.934;5.884;2023-02-28T11:30:37;9.50;99.90
56137;DHT22;42008;52.934;5.884;2023-02-28T11:35:48;9.50;1.00
56137;DHT22;42008;52.934;5.884;2023-02-28T11:38:14;9.70;1.00
56137;DHT22;42008;52.934;5.884;2023-02-28T11:43:50;10.10;12.90
56137;DHT22;42008;52.934;5.884;2023-02-28T11:46:44;9.90;1.00
56137;DHT22;42008;52.934;5.884;2023-02-28T11:49:21;10.00;99.90
56137;DHT22;42008;52.934;5.884;2023-02-28T11:57:50;10.20;99.90
56137;DHT22;42008;52.934;5.884;2023-02-28T12:03:47;11.80;99.90
56137;DHT22;42008;52.934;5.884;2023-02-28T12:06:22;11.80;34.10
56137;DHT22;42008;52.934;5.884;2023-02-28T12:20:37;12.60;1.00
56137;DHT22;42008;52.934;5.884;2023-02-28T12:28:18;12.50;1.00
56137;DHT22;42008;52.934;5.884;2023-02-28T12:31:11;13.00;1.00
56137;DHT22;42008;52.934;5.884;2023-02-28T12:33:44;13.90;99.90
56137;DHT22;42008;52.934;5.884;2023-02-28T12:36:14;13.50;99.90
56137;DHT22;42008;52.934;5.884;2023-02-28T12:38:48;13.80;1.00
56137;DHT22;42008;52.934;5.884;2023-02-28T12:43:50;15.50;1.00
56137;DHT22;42008;52.934;5.884;2023-02-28T12:46:39;15.50;99.50
56137;DHT22;42008;52.934;5.884;2023-02-28T12:49:56;16.80;1.00
56137;DHT22;42008;52.934;5.884;2023-02-28T12:51:57;17.50;1.00
56137;DHT22;42008;52.934;5.884;2023-02-28T12:54:36;16.30;44.90
56137;DHT22;42008;52.934;5.884;2023-02-28T12:57:22;16.70;1.00
56137;DHT22;42008;52.934;5.884;2023-02-28T13:00:08;17.20;1.00
56137;DHT22;42008;52.934;5.884;2023-02-28T13:03:06;18.50;64.90
56137;DHT22;42008;52.934;5.884;2023-02-28T13:10:50;18.60;99.90
56137;DHT22;42008;52.934;5.884;2023-02-28T13:13:28;18.90;99.90
56137;DHT22;42008;52.934;5.884;2023-02-28T13:18:42;20.20;1.00
56137;DHT22;42008;52.934;5.884;2023-02-28T13:21:32;20.90;1.00
56137;DHT22;42008;52.934;5.884;2023-02-28T13:23:59;21.20;1.00
56137;DHT22;42008;52.934;5.884;2023-02-28T13:34:27;21.20;99.90
56137;DHT22;42008;52.934;5.884;2023-02-28T13:39:50;20.40;99.90
56137;DHT22;42008;52.934;5.884;2023-02-28T13:47:29;23.80;99.90
56137;DHT22;42008;52.934;5.884;2023-02-28T14:06:35;24.90;41.80
56137;DHT22;42008;52.934;5.884;2023-02-28T14:11:46;25.40;39.60
56137;DHT22;42008;52.934;5.884;2023-02-28T14:16:59;25.20;28.80
56137;DHT22;42008;52.934;5.884;2023-02-28T14:19:29;24.60;50.20
56137;DHT22;42008;52.934;5.884;2023-02-28T14:22:02;24.40;47.70
56137;DHT22;42008;52.934;5.884;2023-02-28T14:24:59;24.40;48.60
56137;DHT22;42008;52.934;5.884;2023-02-28T14:36:03;20.10;29.70
56137;DHT22;42008;52.934;5.884;2023-02-28T14:38:33;20.60;80.80
56137;DHT22;42008;52.934;5.884;2023-02-28T14:41:03;21.10;77.30
56137;DHT22;42008;52.934;5.884;2023-02-28T14:43:29;22.70;57.80
56137;DHT22;42008;52.934;5.884;2023-02-28T14:46:00;24.00;49.60
56137;DHT22;42008;52.934;5.884;2023-02-28T14:48:27;22.90;40.60
56137;DHT22;42008;52.934;5.884;2023-02-28T14:50:58;24.20;39.90
56137;DHT22;42008;52.934;5.884;2023-02-28T14:53:27;24.40;38.80
56137;DHT22;42008;52.934;5.884;2023-02-28T14:55:53;26.80;36.40
56137;DHT22;42008;52.934;5.884;2023-02-28T14:58:29;25.00;29.80
56137;DHT22;42008;52.934;5.884;2023-02-28T15:00:58;24.60;1.00
56137;DHT22;42008;52.934;5.884;2023-02-28T15:03:32;24.30;24.20
56137;DHT22;42008;52.934;5.884;2023-02-28T15:06:21;24.70;33.40
56137;DHT22;42008;52.934;5.884;2023-02-28T15:08:46;24.50;31.30
56137;DHT22;42008;52.934;5.884;2023-02-28T15:11:14;24.20;19.80
56137;DHT22;42008;52.934;5.884;2023-02-28T15:13:54;26.40;22.30
56137;DHT22;42008;52.934;5.884;2023-02-28T15:19:08;27.20;29.70
56137;DHT22;42008;52.934;5.884;2023-02-28T15:21:40;25.70;1.00
56137;DHT22;42008;52.934;5.884;2023-02-28T15:26:48;24.00;1.00
56137;DHT22;42008;52.934;5.884;2023-02-28T15:29:21;23.90;5.20
56137;DHT22;42008;52.934;5.884;2023-02-28T15:32:01;22.30;1.00
56137;DHT22;42008;52.934;5.884;2023-02-28T15:34:39;19.80;1.00
56137;DHT22;42008;52.934;5.884;2023-02-28T15:39:57;19.30;1.00
56137;DHT22;42008;52.934;5.884;2023-02-28T15:42:28;21.20;22.80
56137;DHT22;42008;52.934;5.884;2023-02-28T15:44:54;23.70;23.80
56137;DHT22;42008;52.934;5.884;2023-02-28T15:47:22;23.20;14.90
56137;DHT22;42008;52.934;5.884;2023-02-28T15:49:54;24.00;20.00
56137;DHT22;42008;52.934;5.884;2023-02-28T15:52:27;23.90;1.00
56137;DHT22;42008;52.934;5.884;2023-02-28T15:54:53;24.20;21.30
56137;DHT22;42008;52.934;5.884;2023-02-28T15:57:22;23.90;14.80
56137;DHT22;42008;52.934;5.884;2023-02-28T15:59:52;23.80;15.00
56137;DHT22;42008;52.934;5.884;2023-02-28T16:07:38;23.70;1.00
56137;DHT22;42008;52.934;5.884;2023-02-28T16:10:06;23.90;1.00
56137;DHT22;42008;52.934;5.884;2023-02-28T16:12:34;23.90;14.60
56137;DHT22;42008;52.934;5.884;2023-02-28T16:15:02;24.10;20.00
56137;DHT22;42008;52.934;5.884;2023-02-28T16:17:34;23.70;21.40
56137;DHT22;42008;52.934;5.884;2023-02-28T16:20:00;23.70;21.50
56137;DHT22;42008;52.934;5.884;2023-02-28T16:22:25;23.40;21.70
56137;DHT22;42008;52.934;5.884;2023-02-28T16:24:51;23.50;20.60
56137;DHT22;42008;52.934;5.884;2023-02-28T16:27:28;23.20;26.40
56137;DHT22;42008;52.934;5.884;2023-02-28T16:29:55;23.50;35.80
56137;DHT22;42008;52.934;5.884;2023-02-28T16:32:21;20.80;15.50
56137;DHT22;42008;52.934;5.884;2023-02-28T16:34:46;21.00;21.30
56137;DHT22;42008;52.934;5.884;2023-02-28T16:37:17;21.50;26.70
56137;DHT22;42008;52.934;5.884;2023-02-28T16:39:44;21.10;31.70
56137;DHT22;42008;52.934;5.884;2023-02-28T16:42:21;20.80;29.70
56137;DHT22;42008;52.934;5.884;2023-02-28T16:44:48;20.20;1.00
56137;DHT22;42008;52.934;5.884;2023-02-28T16:47:13;20.70;42.00
56137;DHT22;42008;52.934;5.884;2023-02-28T16:49:39;18.50;25.30
56137;DHT22;42008;52.934;5.884;2023-02-28T16:52:07;18.10;31.00
56137;DHT22;42008;52.934;5.884;2023-02-28T16:54:33;17.80;36.40
56137;DHT22;42008;52.934;5.884;2023-02-28T16:56:59;15.40;59.60
56137;DHT22;42008;52.934;5.884;2023-02-28T16:59:26;15.10;94.60
56137;DHT22;42008;52.934;5.884;2023-02-28T17:01:53;14.30;99.90
56137;DHT22;42008;52.934;5.884;2023-02-28T17:04:19;12.90;99.90
56137;DHT22;42008;52.934;5.884;2023-02-28T17:06:45;12.60;99.90
56137;DHT22;42008;52.934;5.884;2023-02-28T17:09:17;11.20;99.90
56137;DHT22;42008;52.934;5.884;2023-02-28T17:11:43;10.80;99.90
56137;DHT22;42008;52.934;5.884;2023-02-28T17:14:09;10.60;99.90
56137;DHT22;42008;52.934;5.884;2023-02-28T17:16:36;10.50;99.90
56137;DHT22;42008;52.934;5.884;2023-02-28T17:19:08;9.50;1.00
56137;DHT22;42008;52.934;5.884;2023-02-28T17:21:36;9.10;1.00
56137;DHT22;42008;52.934;5.884;2023-02-28T17:24:02;8.70;99.90
56137;DHT22;42008;52.934;5.884;2023-02-28T17:26:28;7.90;77.30
56137;DHT22;42008;52.934;5.884;2023-02-28T17:28:55;8.60;99.90
56137;DHT22;42008;52.934;5.884;2023-02-28T17:31:22;7.40;99.90
56137;DHT22;42008;52.934;5.884;2023-02-28T17:33:48;6.80;1.00
56137;DHT22;42008;52.934;5.884;2023-02-28T17:36:20;6.40;40.10
56137;DHT22;42008;52.934;5.884;2023-02-28T17:38:50;6.10;99.90
56137;DHT22;42008;52.934;5.884;2023-02-28T17:41:15;5.30;99.90
56137;DHT22;42008;52.934;5.884;2023-02-28T17:43:41;5.20;99.90
56137;DHT22;42008;52.934;5.884;2023-02-28T17:46:16;5.50;99.90
56137;DHT22;42008;52.934;5.884;2023-02-28T17:48:43;5.80;1.00
56137;DHT22;42008;52.934;5.884;2023-02-28T17:51:12;5.50;1.00
56137;DHT22;42008;52.934;5.884;2023-02-28T17:53:38;5.60;1.00
56137;DHT22;42008;52.934;5.884;2023-02-28T17:56:03;5.40;1.00
56137;DHT22;42008;52.934;5.884;2023-02-28T17:58:29;4.80;1.00
56137;DHT22;42008;52.934;5.884;2023-02-28T18:00:56;4.30;1.00
56137;DHT22;42008;52.934;5.884;2023-02-28T18:03:22;5.10;1.00
56137;DHT22;42008;52.934;5.884;2023-02-28T18:05:49;5.40;1.00
56137;DHT22;42008;52.934;5.884;2023-02-28T18:08:15;4.40;1.00
56137;DHT22;42008;52.934;5.884;2023-02-28T18:10:41;4.50;1.00
56137;DHT22;42008;52.934;5.884;2023-02-28T18:13:07;4.30;1.00
56137;DHT22;42008;52.934;5.884;2023-02-28T18:15:33;5.00;1.00
56137;DHT22;42008;52.934;5.884;2023-02-28T18:17:58;4.20;1.00
56137;DHT22;42008;52.934;5.884;2023-02-28T18:20:24;4.10;99.90
56137;DHT22;42008;52.934;5.884;2023-02-28T18:22:50;3.30;1.00
56137;DHT22;42008;52.934;5.884;2023-02-28T18:25:16;3.90;1.00
56137;DHT22;42008;52.934;5.884;2023-02-28T18:27:43;3.80;1.00